Time;durP1;ratioP1;P1;durP2;ratioP2;P2;SDS_P1;SDS_P2;PMS_P1;PMS_P2;Temp;Humidity;BMP_temperature;BMP_pressure;BME280_temperature;BME280_humidity;BME280_pressure;Samples;Min_cycle;Max_cycle;Signal;HPM_P1;HPM_P2
2022/04/13 00:00:57;;;;;;;2.37;1.33;;;;;19.40;100076.00;;;;2087554;28;20212;-45
2022/04/13 00:01:57;;;;;;;1.80;1.25;;;;;19.40;100080.00;;;;2083775;28;20210;-47
2022/04/13 00:02:58;;;;;;;1.60;1.50;;;;;19.40;100075.00;;;;2079342;28;20220;-46
2022/04/13 00:03:58;;;;;;;1.40;1.27;;;;;19.40;100081.00;;;;2079231;28;20255;-47
2022/04/13 00:04:58;;;;;;;1.77;1.50;;;;;19.40;100077.00;;;;2079312;28;20214;-46
2022/04/13 00:05:59;;;;;;;1.30;1.20;;;;;19.40;100069.00;;;;2077788;28;20296;-46
2022/04/13 00:06:59;;;;;;;1.23;1.10;;;;;19.40;100086.00;;;;2078332;28;20706;-46
2022/04/13 00:08:00;;;;;;;1.80;1.70;;;;;19.40;100074.00;;;;2079413;28;20224;-46
2022/04/13 00:09:01;;;;;;;1.58;1.40;;;;;19.40;100079.00;;;;2078610;28;20206;-46
2022/04/13 00:10:02;;;;;;;1.70;1.60;;;;;19.40;100084.00;;;;2082425;28;20255;-46
2022/04/13 00:11:03;;;;;;;1.88;1.67;;;;;19.40;100076.00;;;;2087331;28;20313;-46
2022/04/13 00:12:04;;;;;;;1.73;1.63;;;;;19.40;100079.00;;;;2087355;28;20216;-45
2022/04/13 00:13:04;;;;;;;1.17;1.08;;;;;19.40;100073.00;;;;2087743;28;20741;-46
2022/04/13 00:14:04;;;;;;;1.43;1.30;;;;;19.40;100070.00;;;;2087777;28;20213;-46
2022/04/13 00:15:06;;;;;;;1.70;1.60;;;;;19.40;100084.00;;;;2087962;28;20451;-47
2022/04/13 00:16:06;;;;;;;1.80;1.70;;;;;19.40;100079.00;;;;2087025;28;20292;-46
2022/04/13 00:17:07;;;;;;;1.43;1.33;;;;;19.40;100078.00;;;;2087895;28;20217;-46
2022/04/13 00:18:07;;;;;;;2.17;1.90;;;;;19.40;100086.00;;;;2075804;28;21809;-47
2022/04/13 00:19:08;;;;;;;1.97;1.70;;;;;19.30;100085.00;;;;2087068;28;20212;-47
2022/04/13 00:20:08;;;;;;;1.77;1.60;;;;;19.40;100095.00;;;;2088008;28;20237;-47
2022/04/13 00:21:09;;;;;;;1.20;1.10;;;;;19.40;100087.00;;;;2086800;28;20217;-46
2022/04/13 00:22:09;;;;;;;1.63;1.53;;;;;19.40;100091.00;;;;2087227;28;20963;-47
2022/04/13 00:23:11;;;;;;;1.50;1.40;;;;;19.40;100081.00;;;;2087817;28;20255;-45
2022/04/13 00:24:13;;;;;;;2.00;1.70;;;;;19.40;100077.00;;;;2087458;28;20584;-46
2022/04/13 00:25:13;;;;;;;1.63;1.42;;;;;19.40;100088.00;;;;2087689;28;20217;-45
2022/04/13 00:26:13;;;;;;;2.23;1.70;;;;;19.50;100096.00;;;;2087092;28;20209;-46
2022/04/13 00:27:14;;;;;;;1.53;1.43;;;;;19.40;100087.00;;;;2087631;28;20208;-45
2022/04/13 00:28:14;;;;;;;1.53;1.43;;;;;19.40;100087.00;;;;2087564;28;20209;-46
2022/04/13 00:29:14;;;;;;;1.40;1.30;;;;;19.40;100087.00;;;;2088022;28;20205;-46
2022/04/13 00:30:15;;;;;;;1.83;1.57;;;;;19.40;100078.00;;;;2087018;28;20213;-46
2022/04/13 00:31:15;;;;;;;1.80;1.70;;;;;19.40;100086.00;;;;2087125;28;20673;-46
2022/04/13 00:32:15;;;;;;;1.80;1.50;;;;;19.40;100073.00;;;;2087852;28;20673;-45
2022/04/13 00:33:16;;;;;;;1.93;1.30;;;;;19.40;100078.00;;;;2087974;28;20217;-46
2022/04/13 00:34:16;;;;;;;1.67;1.53;;;;;19.40;100085.00;;;;2087448;28;20216;-45
2022/04/13 00:35:17;;;;;;;1.90;1.70;;;;;19.40;100088.00;;;;2087210;28;20320;-46
2022/04/13 00:36:17;;;;;;;1.60;1.50;;;;;19.40;100081.00;;;;2086872;28;20221;-47
2022/04/13 00:37:18;;;;;;;1.83;1.67;;;;;19.40;100086.00;;;;2087714;28;20247;-47
2022/04/13 00:38:19;;;;;;;1.90;1.57;;;;;19.40;100085.00;;;;2087770;28;20228;-46
2022/04/13 00:39:20;;;;;;;1.60;1.50;;;;;19.40;100088.00;;;;2087603;28;20779;-46
2022/04/13 00:40:20;;;;;;;1.70;1.60;;;;;19.40;100086.00;;;;2087677;28;20205;-47
2022/04/13 00:41:21;;;;;;;1.83;1.73;;;;;19.40;100090.00;;;;2087807;28;20287;-46
2022/04/13 00:42:21;;;;;;;1.48;1.30;;;;;19.40;100084.00;;;;2087052;28;20706;-47
2022/04/13 00:43:22;;;;;;;1.60;1.50;;;;;19.40;100087.00;;;;2087025;28;20212;-46
2022/04/13 00:44:22;;;;;;;1.83;1.67;;;;;19.40;100083.00;;;;2086981;28;20323;-46
2022/04/13 00:45:22;;;;;;;1.90;1.80;;;;;19.40;100017.00;;;;2087142;28;20201;-47
2022/04/13 00:46:23;;;;;;;2.20;1.97;;;;;19.40;100092.00;;;;2087428;28;20250;-45
2022/04/13 00:47:23;;;;;;;2.53;1.90;;;;;19.40;100086.00;;;;2087470;28;20720;-46
2022/04/13 00:48:36;;;;;;;1.80;1.70;;;;;19.40;100079.00;;;;2087017;28;20701;-47
2022/04/13 00:49:36;;;;;;;1.80;1.52;;;;;19.40;100086.00;;;;2087161;28;20239;-46
2022/04/13 00:50:36;;;;;;;1.80;1.60;;;;;19.40;100094.00;;;;2086806;28;20216;-46
2022/04/13 00:51:37;;;;;;;3.00;1.40;;;;;19.40;100094.00;;;;2086945;28;20984;-46
2022/04/13 00:52:40;;;;;;;1.60;1.50;;;;;19.40;100095.00;;;;2087641;28;20217;-46
2022/04/13 00:53:41;;;;;;;1.88;1.70;;;;;19.40;100096.00;;;;2087694;28;20213;-47
2022/04/13 00:54:42;;;;;;;1.90;1.67;;;;;19.40;100109.00;;;;2078583;28;20626;-46
2022/04/13 00:55:43;;;;;;;1.83;1.73;;;;;19.40;100100.00;;;;2077528;28;20217;-52
2022/04/13 00:56:43;;;;;;;1.87;1.70;;;;;19.40;100096.00;;;;2086419;28;20304;-50
2022/04/13 00:57:43;;;;;;;1.87;1.77;;;;;19.40;100098.00;;;;2071652;28;20216;-46
2022/04/13 00:58:44;;;;;;;2.20;2.00;;;;;19.40;100101.00;;;;2070083;28;20218;-46
2022/04/13 00:59:45;;;;;;;1.93;1.73;;;;;19.40;100097.00;;;;2070668;28;20299;-47
2022/04/13 01:00:48;;;;;;;2.17;1.70;;;;;19.10;100104.00;;;;2073072;28;21044;-46
2022/04/13 01:01:49;;;;;;;2.00;1.50;;;;;19.40;100098.00;;;;2079097;28;20304;-46
2022/04/13 01:02:49;;;;;;;2.80;1.80;;;;;19.40;100098.00;;;;2078715;28;20224;-47
2022/04/13 01:03:50;;;;;;;2.10;1.90;;;;;19.40;100101.00;;;;2069986;28;20242;-47
2022/04/13 01:04:51;;;;;;;1.70;1.50;;;;;19.40;100100.00;;;;2069712;28;20306;-46
2022/04/13 01:05:51;;;;;;;2.00;1.80;;;;;19.40;100093.00;;;;2077445;28;20360;-46
2022/04/13 01:06:52;;;;;;;2.50;1.90;;;;;19.40;100104.00;;;;2077271;28;20249;-46
2022/04/13 01:07:52;;;;;;;1.80;1.70;;;;;19.40;100108.00;;;;2068326;28;20457;-47
2022/04/13 01:08:53;;;;;;;1.67;1.57;;;;;19.40;100103.00;;;;2061627;28;20234;-46
2022/04/13 01:09:53;;;;;;;2.27;1.87;;;;;19.40;100099.00;;;;2078190;28;20610;-46
2022/04/13 01:10:54;;;;;;;1.77;1.63;;;;;19.40;100095.00;;;;2077660;28;20213;-46
2022/04/13 01:11:54;;;;;;;2.10;1.60;;;;;19.40;100103.00;;;;2070038;28;20659;-46
2022/04/13 01:12:54;;;;;;;1.90;1.70;;;;;19.40;100101.00;;;;2078210;28;20213;-46
2022/04/13 01:13:56;;;;;;;2.57;1.70;;;;;19.40;100110.00;;;;2078725;28;20268;-46
2022/04/13 01:14:56;;;;;;;2.97;2.30;;;;;19.40;100112.00;;;;2078395;28;20656;-46
2022/04/13 01:15:56;;;;;;;3.00;2.00;;;;;19.40;100113.00;;;;2078310;28;20213;-46
2022/04/13 01:16:57;;;;;;;2.10;1.90;;;;;19.40;100111.00;;;;2078602;28;20226;-46
2022/04/13 01:17:57;;;;;;;2.43;2.23;;;;;19.40;100110.00;;;;2076302;28;20213;-47
2022/04/13 01:18:58;;;;;;;1.80;1.70;;;;;19.40;100104.00;;;;2079294;28;20737;-46
2022/04/13 01:20:00;;;;;;;1.70;1.60;;;;;19.40;100111.00;;;;2078795;28;20692;-47
2022/04/13 01:21:00;;;;;;;2.33;1.90;;;;;19.40;100117.00;;;;2079361;28;20693;-46
2022/04/13 01:22:20;;;;;;;1.87;1.77;;;;;19.40;100112.00;;;;2079464;28;20206;-46
2022/04/13 01:23:21;;;;;;;2.30;2.10;;;;;19.40;100114.00;;;;2070178;28;20214;-46
2022/04/13 01:24:21;;;;;;;2.10;2.00;;;;;19.40;100111.00;;;;2070710;28;20226;-45
2022/04/13 01:25:21;;;;;;;2.57;1.90;;;;;19.40;100111.00;;;;2070552;28;20214;-46
2022/04/13 01:26:22;;;;;;;1.70;1.60;;;;;19.40;100113.00;;;;2076462;28;20221;-46
2022/04/13 01:27:22;;;;;;;2.50;1.90;;;;;19.40;100115.00;;;;2079031;28;20213;-46
2022/04/13 01:28:23;;;;;;;2.03;1.87;;;;;19.40;100117.00;;;;2078900;28;20301;-46
2022/04/13 01:29:23;;;;;;;2.20;2.00;;;;;19.40;100126.00;;;;2079129;28;20209;-47
2022/04/13 01:30:24;;;;;;;2.23;2.03;;;;;19.40;100123.00;;;;2079436;28;20220;-46
2022/04/13 01:31:24;;;;;;;2.85;2.22;;;;;19.40;100102.00;;;;2079232;28;20295;-46
2022/04/13 01:32:25;;;;;;;1.70;1.60;;;;;19.40;100112.00;;;;2079067;28;20229;-47
2022/04/13 01:33:27;;;;;;;2.37;2.17;;;;;19.40;100125.00;;;;2079204;28;20255;-47
2022/04/13 01:34:27;;;;;;;1.88;1.75;;;;;19.40;100123.00;;;;2068162;28;20700;-45
2022/04/13 01:35:28;;;;;;;1.70;1.60;;;;;19.40;100123.00;;;;2061762;28;20211;-46
2022/04/13 01:36:28;;;;;;;2.43;2.20;;;;;19.40;100118.00;;;;2070976;28;20222;-46
2022/04/13 01:37:28;;;;;;;2.63;2.10;;;;;19.40;100117.00;;;;2070848;28;20234;-47
2022/04/13 01:38:29;;;;;;;2.20;2.00;;;;;19.40;100123.00;;;;2071119;28;20218;-46
2022/04/13 01:39:29;;;;;;;2.67;2.03;;;;;19.40;100125.00;;;;2068585;28;20268;-47
2022/04/13 01:40:30;;;;;;;2.60;2.13;;;;;19.40;100130.00;;;;2070600;28;20250;-46
2022/04/13 01:41:30;;;;;;;3.00;1.87;;;;;19.40;100127.00;;;;2070913;28;20322;-46
2022/04/13 01:42:30;;;;;;;1.93;1.80;;;;;19.40;100129.00;;;;2070810;28;20902;-46
2022/04/13 01:43:31;;;;;;;2.30;2.10;;;;;19.40;100128.00;;;;2071229;28;20561;-46
2022/04/13 01:44:31;;;;;;;2.77;2.57;;;;;19.40;100130.00;;;;2073935;28;20248;-47
2022/04/13 01:45:31;;;;;;;2.47;2.27;;;;;19.40;100131.00;;;;2077814;28;20210;-46
2022/04/13 01:46:32;;;;;;;2.50;2.30;;;;;19.40;100137.00;;;;2079054;28;20214;-46
2022/04/13 01:47:32;;;;;;;2.13;1.93;;;;;19.40;100136.00;;;;2078967;28;20228;-45
2022/04/13 01:48:32;;;;;;;2.43;2.10;;;;;19.40;100132.00;;;;2079032;28;20221;-46
2022/04/13 01:49:33;;;;;;;2.53;2.33;;;;;19.40;100162.00;;;;2079189;28;20256;-47
2022/04/13 01:50:33;;;;;;;2.00;1.80;;;;;19.40;100137.00;;;;2078954;28;20914;-46
2022/04/13 01:51:33;;;;;;;2.37;2.17;;;;;19.40;100134.00;;;;2079078;28;21079;-46
2022/04/13 01:52:34;;;;;;;2.57;2.37;;;;;19.40;100140.00;;;;2078959;28;20224;-46
2022/04/13 01:53:35;;;;;;;2.20;2.00;;;;;19.40;100145.00;;;;2071597;28;20211;-46
2022/04/13 01:54:35;;;;;;;2.30;2.10;;;;;19.40;100142.00;;;;2070296;28;20221;-47
2022/04/13 01:55:35;;;;;;;2.93;2.27;;;;;19.40;100141.00;;;;2061955;28;20820;-46
2022/04/13 01:56:36;;;;;;;2.33;2.13;;;;;19.40;100139.00;;;;2070800;28;20226;-47
2022/04/13 01:57:40;;;;;;;2.20;2.00;;;;;19.40;100144.00;;;;2069523;28;20226;-46
2022/04/13 01:58:40;;;;;;;2.35;2.03;;;;;19.40;100143.00;;;;2074708;28;20218;-46
2022/04/13 01:59:40;;;;;;;2.63;2.43;;;;;19.40;100144.00;;;;2079028;28;20687;-46
2022/04/13 02:00:41;;;;;;;2.20;2.00;;;;;19.40;100137.00;;;;2079110;28;20319;-47
2022/04/13 02:01:43;;;;;;;2.20;2.00;;;;;19.40;100152.00;;;;2079175;28;20217;-46
2022/04/13 02:02:44;;;;;;;2.17;2.00;;;;;19.40;100141.00;;;;2078171;28;20214;-47
2022/04/13 02:03:44;;;;;;;2.37;2.17;;;;;19.40;100142.00;;;;2078517;28;20263;-46
2022/04/13 02:04:45;;;;;;;2.50;2.20;;;;;19.40;100138.00;;;;2078755;28;20221;-46
2022/04/13 02:05:46;;;;;;;2.23;2.00;;;;;19.40;100137.00;;;;2078213;28;20214;-47
2022/04/13 02:06:47;;;;;;;2.60;2.15;;;;;19.40;100150.00;;;;2078827;28;20221;-47
2022/04/13 02:07:47;;;;;;;2.50;2.30;;;;;19.40;100137.00;;;;2079123;28;20695;-46
2022/04/13 02:08:48;;;;;;;2.17;2.00;;;;;19.40;100138.00;;;;2079026;28;20635;-46
2022/04/13 02:09:49;;;;;;;3.40;2.20;;;;;19.40;100138.00;;;;2078954;28;20710;-47
2022/04/13 02:10:49;;;;;;;2.80;2.00;;;;;19.40;100144.00;;;;2079333;28;20271;-46
2022/04/13 02:11:50;;;;;;;2.83;2.30;;;;;19.40;100145.00;;;;2079054;28;20252;-46
2022/04/13 02:12:51;;;;;;;3.27;2.50;;;;;19.40;100138.00;;;;2078702;28;20217;-46
2022/04/13 02:13:52;;;;;;;3.28;2.70;;;;;19.40;100135.00;;;;2077259;28;20385;-46
2022/04/13 02:14:52;;;;;;;2.50;2.30;;;;;19.30;100143.00;;;;2071008;28;20313;-46
2022/04/13 02:15:53;;;;;;;3.77;2.60;;;;;19.40;100139.00;;;;2070767;28;20846;-46
2022/04/13 02:16:53;;;;;;;2.40;2.20;;;;;19.40;100149.00;;;;2070751;28;20697;-46
2022/04/13 02:17:53;;;;;;;2.27;2.07;;;;;19.40;100161.00;;;;2071477;28;20222;-46
2022/04/13 02:18:54;;;;;;;2.27;2.07;;;;;19.40;100149.00;;;;2072576;28;20691;-46
2022/04/13 02:19:54;;;;;;;2.20;2.00;;;;;19.40;100152.00;;;;2072600;28;20773;-46
2022/04/13 02:20:54;;;;;;;2.20;2.00;;;;;19.40;100154.00;;;;2080305;28;20752;-54
2022/04/13 02:21:55;;;;;;;2.53;2.30;;;;;19.40;100149.00;;;;2080410;28;20232;-52
2022/04/13 02:22:55;;;;;;;2.50;2.20;;;;;19.40;100159.00;;;;2080481;28;20340;-50
2022/04/13 02:23:55;;;;;;;2.70;2.17;;;;;19.30;100157.00;;;;2080706;28;20217;-49
2022/04/13 02:25:00;;;;;;;2.90;2.00;;;;;19.30;100153.00;;;;2086395;28;20224;-48
2022/04/13 02:26:02;;;;;;;2.67;2.47;;;;;19.30;100153.00;;;;2087747;28;20587;-46
2022/04/13 02:27:02;;;;;;;2.38;2.17;;;;;19.30;100145.00;;;;2088864;28;20844;-46
2022/04/13 02:28:06;;;;;;;2.77;2.17;;;;;19.30;100148.00;;;;2088920;28;20216;-47
2022/04/13 02:29:06;;;;;;;2.40;2.20;;;;;19.40;100147.00;;;;2088142;28;20212;-46
2022/04/13 02:30:07;;;;;;;3.30;2.70;;;;;19.30;100146.00;;;;2088120;28;20252;-46
2022/04/13 02:31:07;;;;;;;2.40;1.93;;;;;19.30;100144.00;;;;2088817;28;20270;-47
2022/04/13 02:32:09;;;;;;;2.87;2.10;;;;;19.30;100147.00;;;;2089021;28;20217;-46
2022/04/13 02:33:09;;;;;;;2.30;2.10;;;;;19.30;100154.00;;;;2088284;28;20205;-46
2022/04/13 02:34:09;;;;;;;2.20;2.00;;;;;19.40;100146.00;;;;2087809;28;20213;-46
2022/04/13 02:35:10;;;;;;;2.87;2.53;;;;;19.40;100145.00;;;;2080455;28;20230;-46
2022/04/13 02:36:11;;;;;;;2.40;2.20;;;;;19.30;100142.00;;;;2079618;28;20229;-46
2022/04/13 02:37:11;;;;;;;2.20;2.00;;;;;19.30;100151.00;;;;2080579;28;20808;-46
2022/04/13 02:38:11;;;;;;;2.53;2.03;;;;;19.30;100153.00;;;;2080452;28;20224;-46
2022/04/13 02:39:12;;;;;;;2.50;2.30;;;;;19.40;100147.00;;;;2080524;28;20209;-46
2022/04/13 02:40:13;;;;;;;2.50;2.30;;;;;19.40;100154.00;;;;2080595;28;20237;-47
2022/04/13 02:41:13;;;;;;;2.60;2.40;;;;;19.30;100154.00;;;;2083546;28;20768;-46
2022/04/13 02:42:15;;;;;;;2.50;2.30;;;;;19.30;100152.00;;;;2088802;28;20209;-46
2022/04/13 02:43:15;;;;;;;2.47;2.10;;;;;19.30;100159.00;;;;2088779;28;20212;-45
2022/04/13 02:44:15;;;;;;;2.60;2.40;;;;;19.30;100155.00;;;;2087851;28;20231;-46
2022/04/13 02:45:16;;;;;;;2.73;2.53;;;;;19.40;100155.00;;;;2087603;28;20220;-45
2022/04/13 02:46:16;;;;;;;2.37;2.17;;;;;19.30;100149.00;;;;2087974;28;20213;-46
2022/04/13 02:47:16;;;;;;;2.47;2.27;;;;;19.30;100159.00;;;;2088329;28;20224;-46
2022/04/13 02:48:17;;;;;;;2.13;1.93;;;;;19.30;100150.00;;;;2088526;28;20501;-46
2022/04/13 02:49:17;;;;;;;2.33;2.13;;;;;19.30;100148.00;;;;2088791;28;20620;-46
2022/04/13 02:50:18;;;;;;;3.57;2.60;;;;;19.30;100175.00;;;;2088606;28;20573;-46
2022/04/13 02:51:18;;;;;;;3.35;2.35;;;;;19.40;100160.00;;;;2087841;28;20224;-46
2022/04/13 02:52:19;;;;;;;3.07;2.13;;;;;19.30;100151.00;;;;2080383;28;20228;-47
2022/04/13 02:53:19;;;;;;;2.37;2.17;;;;;19.30;100160.00;;;;2080601;28;20771;-46
2022/04/13 02:54:19;;;;;;;2.90;2.13;;;;;19.30;100157.00;;;;2080603;28;20662;-46
2022/04/13 02:55:20;;;;;;;2.67;2.10;;;;;19.30;100152.00;;;;2079645;28;20244;-45
2022/04/13 02:56:20;;;;;;;2.50;2.00;;;;;19.30;100157.00;;;;2080080;28;20245;-46
2022/04/13 02:57:21;;;;;;;2.40;2.20;;;;;19.30;100158.00;;;;2086245;28;20220;-46
2022/04/13 02:58:21;;;;;;;2.23;2.03;;;;;19.30;100162.00;;;;2088528;28;20232;-46
2022/04/13 02:59:21;;;;;;;2.40;2.20;;;;;19.30;100161.00;;;;2088463;28;20228;-47
2022/04/13 03:00:22;;;;;;;2.80;2.50;;;;;19.30;100159.00;;;;2087330;28;20220;-47
2022/04/13 03:01:22;;;;;;;2.80;2.30;;;;;19.30;100160.00;;;;2088432;28;20220;-46
2022/04/13 03:02:23;;;;;;;2.73;2.53;;;;;19.30;100164.00;;;;2088592;28;20224;-47
2022/04/13 03:03:23;;;;;;;2.37;2.17;;;;;19.30;100161.00;;;;2088629;28;20476;-47
2022/04/13 03:04:23;;;;;;;2.50;2.20;;;;;19.30;100163.00;;;;2088360;28;20255;-47
2022/04/13 03:05:24;;;;;;;2.40;2.20;;;;;19.30;100162.00;;;;2087114;28;20212;-45
2022/04/13 03:06:24;;;;;;;2.93;2.30;;;;;19.30;100165.00;;;;2088459;28;20216;-45
2022/04/13 03:07:28;;;;;;;3.30;2.20;;;;;19.30;100172.00;;;;2088367;28;20219;-46
2022/04/13 03:08:28;;;;;;;2.15;1.95;;;;;19.30;100167.00;;;;2087292;28;21385;-46
2022/04/13 03:09:28;;;;;;;2.50;2.30;;;;;19.30;100165.00;;;;2076625;28;20320;-46
2022/04/13 03:10:29;;;;;;;2.43;2.20;;;;;19.30;100167.00;;;;2079607;28;20810;-46
2022/04/13 03:11:30;;;;;;;2.77;2.27;;;;;19.30;100172.00;;;;2084218;28;20321;-47
2022/04/13 03:12:32;;;;;;;2.53;2.00;;;;;19.30;100178.00;;;;2080246;28;20217;-46
2022/04/13 03:13:32;;;;;;;2.50;2.00;;;;;19.30;100172.00;;;;2079336;28;20205;-46
2022/04/13 03:14:33;;;;;;;2.40;2.20;;;;;19.30;100177.00;;;;2085652;28;20590;-45
2022/04/13 03:15:34;;;;;;;2.00;1.90;;;;;19.30;100178.00;;;;2087562;28;20676;-47
2022/04/13 03:16:34;;;;;;;2.33;2.13;;;;;19.30;100179.00;;;;2088251;28;20527;-47
2022/04/13 03:17:34;;;;;;;2.40;2.10;;;;;19.30;100175.00;;;;2088362;28;20240;-46
2022/04/13 03:18:35;;;;;;;2.50;2.30;;;;;19.30;100176.00;;;;2087356;28;20223;-46
2022/04/13 03:19:35;;;;;;;2.50;2.30;;;;;19.30;100175.00;;;;2088574;28;20208;-46
2022/04/13 03:20:35;;;;;;;2.40;2.20;;;;;19.30;100178.00;;;;2088315;28;20255;-46
2022/04/13 03:21:36;;;;;;;2.67;2.47;;;;;19.30;100174.00;;;;2088537;28;20292;-46
2022/04/13 03:22:36;;;;;;;2.20;2.00;;;;;19.30;100190.00;;;;2088208;28;20573;-46
2022/04/13 03:23:36;;;;;;;2.70;2.50;;;;;19.30;100182.00;;;;2088520;28;20917;-46
2022/04/13 03:24:37;;;;;;;2.50;2.30;;;;;19.30;100185.00;;;;2088174;28;20691;-46
2022/04/13 03:25:37;;;;;;;2.30;2.10;;;;;19.30;100186.00;;;;2086622;28;20716;-46
2022/04/13 03:26:37;;;;;;;2.20;2.00;;;;;19.30;100183.00;;;;2086705;28;20243;-45
2022/04/13 03:27:38;;;;;;;2.83;2.33;;;;;19.30;100185.00;;;;2088047;28;20556;-46
2022/04/13 03:28:38;;;;;;;2.17;2.07;;;;;19.30;100190.00;;;;2088150;28;20620;-46
2022/04/13 03:29:38;;;;;;;3.17;2.10;;;;;19.30;100186.00;;;;2087377;28;20721;-46
2022/04/13 03:30:39;;;;;;;2.90;2.30;;;;;19.30;100186.00;;;;2088460;28;20213;-46
2022/04/13 03:31:39;;;;;;;2.20;1.90;;;;;19.30;100188.00;;;;2088459;28;20213;-47
2022/04/13 03:32:39;;;;;;;2.23;2.03;;;;;19.30;100199.00;;;;2088404;28;20216;-46
2022/04/13 03:33:40;;;;;;;2.70;2.43;;;;;19.30;100199.00;;;;2088307;28;20219;-46
2022/04/13 03:34:40;;;;;;;2.63;2.43;;;;;19.30;100187.00;;;;2088209;28;20618;-47
2022/04/13 03:35:40;;;;;;;2.50;2.30;;;;;19.30;100194.00;;;;2087294;28;20825;-47
2022/04/13 03:36:41;;;;;;;3.10;2.50;;;;;19.30;100195.00;;;;2087878;28;20221;-46
2022/04/13 03:37:41;;;;;;;2.70;2.50;;;;;19.30;100191.00;;;;2088038;28;20263;-47
2022/04/13 03:38:41;;;;;;;4.03;2.23;;;;;19.30;100201.00;;;;2088055;28;20201;-46
2022/04/13 03:39:42;;;;;;;2.10;1.90;;;;;19.30;100120.00;;;;2088371;28;20573;-47
2022/04/13 03:40:42;;;;;;;1.93;1.83;;;;;19.30;100192.00;;;;2088451;28;20317;-46
2022/04/13 03:41:43;;;;;;;2.80;2.50;;;;;19.30;100200.00;;;;2088143;28;20546;-46
2022/04/13 03:42:43;;;;;;;2.60;2.40;;;;;19.30;100196.00;;;;2088319;28;20604;-47
2022/04/13 03:43:43;;;;;;;2.40;2.20;;;;;19.30;100202.00;;;;2087867;28;20197;-46
2022/04/13 03:44:44;;;;;;;2.40;2.20;;;;;19.30;100196.00;;;;2087949;28;20200;-47
2022/04/13 03:45:44;;;;;;;2.80;2.60;;;;;19.30;100211.00;;;;2083424;28;20208;-46
2022/04/13 03:46:44;;;;;;;2.53;2.10;;;;;19.30;100202.00;;;;2079385;28;20585;-44
2022/04/13 03:47:45;;;;;;;2.77;2.20;;;;;19.30;100208.00;;;;2084852;28;20656;-46
2022/04/13 03:48:45;;;;;;;2.50;2.30;;;;;19.30;100210.00;;;;2083597;28;20216;-46
2022/04/13 03:49:45;;;;;;;2.57;2.37;;;;;19.30;100210.00;;;;2087324;28;20354;-46
2022/04/13 03:50:46;;;;;;;2.30;2.10;;;;;19.30;100212.00;;;;2087923;28;20205;-46
2022/04/13 03:51:46;;;;;;;2.33;2.13;;;;;19.30;100210.00;;;;2082623;28;20343;-47
2022/04/13 03:52:47;;;;;;;2.90;2.60;;;;;19.30;100217.00;;;;2086091;28;20296;-47
2022/04/13 03:53:47;;;;;;;3.33;2.10;;;;;19.30;100207.00;;;;2088185;28;20271;-46
2022/04/13 03:54:47;;;;;;;2.47;2.27;;;;;19.30;100208.00;;;;2087961;28;20205;-47
2022/04/13 03:55:48;;;;;;;2.30;2.10;;;;;19.30;100208.00;;;;2087009;28;20223;-46
2022/04/13 03:56:48;;;;;;;2.60;2.40;;;;;19.30;100208.00;;;;2088327;28;20244;-46
2022/04/13 03:57:52;;;;;;;2.37;2.10;;;;;19.30;100205.00;;;;2088101;28;20217;-47
2022/04/13 03:58:52;;;;;;;2.40;2.05;;;;;19.30;100210.00;;;;2083471;28;20221;-46
2022/04/13 03:59:53;;;;;;;3.27;2.40;;;;;19.30;100210.00;;;;2079604;28;20245;-47
2022/04/13 04:00:53;;;;;;;2.77;1.97;;;;;19.30;100211.00;;;;2082310;28;20247;-45
2022/04/13 04:01:53;;;;;;;2.60;2.13;;;;;19.30;100217.00;;;;2088040;28;20266;-46
2022/04/13 04:02:54;;;;;;;2.17;2.00;;;;;19.30;100222.00;;;;2087989;28;20217;-46
2022/04/13 04:03:54;;;;;;;2.77;2.57;;;;;19.30;100212.00;;;;2088031;28;20292;-46
2022/04/13 04:04:55;;;;;;;2.93;2.63;;;;;19.30;100211.00;;;;2087748;28;20216;-46
2022/04/13 04:05:55;;;;;;;2.17;1.97;;;;;19.30;100217.00;;;;2087271;28;20270;-47
2022/04/13 04:06:55;;;;;;;2.40;2.20;;;;;19.30;100218.00;;;;2087815;28;20217;-47
2022/04/13 04:07:56;;;;;;;2.80;2.43;;;;;19.30;100218.00;;;;2087815;28;20213;-45
2022/04/13 04:08:56;;;;;;;2.23;2.03;;;;;19.30;100217.00;;;;2088090;28;20212;-46
2022/04/13 04:09:56;;;;;;;2.40;2.20;;;;;19.30;100219.00;;;;2087775;28;20213;-46
2022/04/13 04:10:57;;;;;;;2.60;2.40;;;;;19.30;100217.00;;;;2083973;28;20217;-46
2022/04/13 04:11:57;;;;;;;2.80;2.50;;;;;19.30;100218.00;;;;2079965;28;20244;-46
2022/04/13 04:12:57;;;;;;;2.70;2.50;;;;;19.30;100226.00;;;;2079743;28;20217;-47
2022/04/13 04:13:58;;;;;;;2.60;2.40;;;;;19.30;100226.00;;;;2079564;28;20267;-46
2022/04/13 04:15:01;;;;;;;3.10;2.63;;;;;19.30;100219.00;;;;2079463;28;20213;-45
2022/04/13 04:16:01;;;;;;;2.22;2.03;;;;;19.30;100228.00;;;;2082655;28;20239;-46
2022/04/13 04:17:02;;;;;;;2.07;1.83;;;;;19.30;100226.00;;;;2087801;28;20294;-46
2022/04/13 04:18:02;;;;;;;2.87;2.40;;;;;19.20;100225.00;;;;2087791;28;20215;-46
2022/04/13 04:19:02;;;;;;;2.30;2.10;;;;;19.30;100231.00;;;;2087849;28;20267;-46
2022/04/13 04:20:04;;;;;;;2.83;2.20;;;;;19.30;100223.00;;;;2088152;28;20209;-46
2022/04/13 04:21:04;;;;;;;2.60;2.03;;;;;19.30;100243.00;;;;2087735;28;20467;-47
2022/04/13 04:22:04;;;;;;;3.10;2.20;;;;;19.30;100230.00;;;;2087752;28;20715;-46
2022/04/13 04:23:05;;;;;;;2.33;2.13;;;;;19.30;100232.00;;;;2080466;28;20666;-45
2022/04/13 04:24:06;;;;;;;2.47;2.27;;;;;19.30;100228.00;;;;2079756;28;20220;-46
2022/04/13 04:25:07;;;;;;;2.50;2.30;;;;;19.30;100231.00;;;;2079255;28;20686;-46
2022/04/13 04:26:08;;;;;;;2.95;2.22;;;;;19.30;100234.00;;;;2078927;28;20218;-47
2022/04/13 04:27:08;;;;;;;2.43;2.20;;;;;19.30;100232.00;;;;2083200;28;20274;-46
2022/04/13 04:28:12;;;;;;;2.80;2.60;;;;;19.30;100230.00;;;;2087461;28;20219;-45
2022/04/13 04:29:12;;;;;;;2.00;1.90;;;;;19.30;100233.00;;;;2083384;28;20557;-49
2022/04/13 04:30:12;;;;;;;2.30;2.03;;;;;19.30;100238.00;;;;2087957;28;20220;-50
2022/04/13 04:31:13;;;;;;;2.33;2.13;;;;;19.30;100244.00;;;;2079578;28;20696;-48
2022/04/13 04:32:13;;;;;;;2.10;1.90;;;;;19.30;100239.00;;;;2079659;28;20220;-46
2022/04/13 04:33:15;;;;;;;2.20;2.00;;;;;19.20;100234.00;;;;2077560;28;20240;-45
2022/04/13 04:34:17;;;;;;;2.83;2.50;;;;;19.30;100237.00;;;;2071136;28;20246;-46
2022/04/13 04:35:17;;;;;;;2.92;2.60;;;;;19.30;100237.00;;;;2070375;28;20584;-46
2022/04/13 04:36:17;;;;;;;2.33;2.07;;;;;19.30;100235.00;;;;2069848;28;20249;-46
2022/04/13 04:37:18;;;;;;;2.43;2.23;;;;;19.30;100241.00;;;;2071231;28;20222;-47
2022/04/13 04:38:18;;;;;;;2.53;2.33;;;;;19.30;100236.00;;;;2071325;28;20226;-46
2022/04/13 04:39:19;;;;;;;2.50;2.30;;;;;19.20;100243.00;;;;2070790;28;20218;-49
2022/04/13 04:40:19;;;;;;;2.60;2.40;;;;;19.20;100238.00;;;;2071403;28;20233;-47
2022/04/13 04:41:19;;;;;;;2.40;2.20;;;;;19.30;100234.00;;;;2070227;28;20257;-46
2022/04/13 04:42:20;;;;;;;2.30;2.10;;;;;19.30;100240.00;;;;2071271;28;20213;-46
2022/04/13 04:43:20;;;;;;;2.60;2.10;;;;;19.30;100235.00;;;;2071167;28;20222;-46
2022/04/13 04:44:20;;;;;;;2.60;2.40;;;;;19.20;100243.00;;;;2079296;28;20224;-46
2022/04/13 04:45:21;;;;;;;2.33;2.13;;;;;19.30;100241.00;;;;2078936;28;20222;-47
2022/04/13 04:46:21;;;;;;;4.20;2.40;;;;;19.30;100238.00;;;;2079169;28;20906;-46
2022/04/13 04:47:22;;;;;;;2.40;2.20;;;;;19.20;100242.00;;;;2078346;28;20222;-46
2022/04/13 04:48:22;;;;;;;1.90;1.80;;;;;19.20;100240.00;;;;2079447;28;20225;-46
2022/04/13 04:49:22;;;;;;;2.70;2.20;;;;;19.30;100247.00;;;;2079311;28;20275;-46
2022/04/13 04:50:23;;;;;;;2.80;2.57;;;;;19.30;100240.00;;;;2079337;28;20213;-47
2022/04/13 04:51:23;;;;;;;2.77;2.20;;;;;19.20;100249.00;;;;2079258;28;20209;-46
2022/04/13 04:52:24;;;;;;;2.13;1.93;;;;;19.20;100255.00;;;;2084632;28;20999;-47
2022/04/13 04:53:24;;;;;;;2.40;2.20;;;;;19.30;100246.00;;;;2082251;28;20216;-46
2022/04/13 04:54:24;;;;;;;2.47;2.27;;;;;19.20;100241.00;;;;2079310;28;20210;-47
2022/04/13 04:55:25;;;;;;;2.20;2.00;;;;;19.30;100246.00;;;;2078403;28;20220;-47
2022/04/13 04:56:25;;;;;;;2.37;2.00;;;;;19.20;100249.00;;;;2079279;28;20297;-47
2022/04/13 04:57:26;;;;;;;2.40;2.20;;;;;19.20;100246.00;;;;2078175;28;20354;-47
2022/04/13 04:58:27;;;;;;;2.67;2.30;;;;;19.30;100242.00;;;;2078513;28;20668;-46
2022/04/13 04:59:27;;;;;;;2.20;1.97;;;;;19.20;100252.00;;;;2079156;28;20209;-45
2022/04/13 05:00:27;;;;;;;2.50;2.00;;;;;19.20;100256.00;;;;2073427;28;20209;-46